sensor_id;sensor_type;location;lat;lon;timestamp;pressure;altitude;pressure_sealevel;temperature;humidity
60970;BME280;46841;48.938;9.502;2024-03-23T00:56:08;97805.91;;;3.93;100.00
60970;BME280;46841;48.938;9.502;2024-03-23T00:58:34;97807.38;;;3.86;100.00
60970;BME280;46841;48.938;9.502;2024-03-23T01:01:00;97806.78;;;3.94;100.00
60970;BME280;46841;48.938;9.502;2024-03-23T01:03:25;97800.13;;;4.03;100.00
60970;BME280;46841;48.938;9.502;2024-03-23T01:05:51;97785.44;;;4.10;100.00
60970;BME280;46841;48.938;9.502;2024-03-23T01:08:17;97784.75;;;4.16;99.62
60970;BME280;46841;48.938;9.502;2024-03-23T01:10:43;97773.34;;;4.17;99.38
60970;BME280;46841;48.938;9.502;2024-03-23T01:13:18;97779.88;;;4.26;99.18
60970;BME280;46841;48.938;9.502;2024-03-23T01:15:49;97772.06;;;4.05;98.62
60970;BME280;46841;48.938;9.502;2024-03-23T01:18:14;97774.06;;;4.35;98.95
60970;BME280;46841;48.938;9.502;2024-03-23T01:20:39;97774.19;;;4.38;98.94
60970;BME280;46841;48.938;9.502;2024-03-23T01:23:05;97764.91;;;4.49;99.97
60970;BME280;46841;48.938;9.502;2024-03-23T01:25:30;97765.75;;;4.72;100.00
60970;BME280;46841;48.938;9.502;2024-03-23T01:27:56;97753.06;;;4.86;99.89
60970;BME280;46841;48.938;9.502;2024-03-23T01:30:21;97763.38;;;5.04;99.88
60970;BME280;46841;48.938;9.502;2024-03-23T01:32:46;97752.28;;;5.14;99.22
60970;BME280;46841;48.938;9.502;2024-03-23T01:35:12;97754.25;;;5.21;98.97
60970;BME280;46841;48.938;9.502;2024-03-23T01:37:37;97736.16;;;5.32;97.19
60970;BME280;46841;48.938;9.502;2024-03-23T01:40:03;97716.69;;;5.31;95.97
60970;BME280;46841;48.938;9.502;2024-03-23T01:42:29;97726.00;;;5.19;95.79
60970;BME280;46841;48.938;9.502;2024-03-23T01:44:55;97711.28;;;5.01;96.05
60970;BME280;46841;48.938;9.502;2024-03-23T01:47:20;97716.91;;;5.10;96.27
60970;BME280;46841;48.938;9.502;2024-03-23T01:49:46;97720.78;;;5.22;96.43
60970;BME280;46841;48.938;9.502;2024-03-23T01:52:11;97720.63;;;5.43;95.69
60970;BME280;46841;48.938;9.502;2024-03-23T01:54:37;97725.59;;;5.60;94.89
60970;BME280;46841;48.938;9.502;2024-03-23T01:57:03;97710.06;;;5.71;93.72
60970;BME280;46841;48.938;9.502;2024-03-23T01:59:29;97700.59;;;5.79;93.58
60970;BME280;46841;48.938;9.502;2024-03-23T02:01:55;97701.19;;;5.69;93.50
60970;BME280;46841;48.938;9.502;2024-03-23T02:04:21;97686.03;;;5.65;93.76
60970;BME280;46841;48.938;9.502;2024-03-23T02:06:47;97683.63;;;5.71;93.76
60970;BME280;46841;48.938;9.502;2024-03-23T02:09:13;97682.66;;;5.69;93.77
60970;BME280;46841;48.938;9.502;2024-03-23T02:11:39;97680.69;;;5.62;94.10
60970;BME280;46841;48.938;9.502;2024-03-23T02:14:04;97669.19;;;5.61;93.81
60970;BME280;46841;48.938;9.502;2024-03-23T02:16:30;97660.16;;;5.55;94.16
60970;BME280;46841;48.938;9.502;2024-03-23T02:18:55;97657.75;;;5.34;94.19
60970;BME280;46841;48.938;9.502;2024-03-23T02:21:21;97659.16;;;5.23;94.62
60970;BME280;46841;48.938;9.502;2024-03-23T02:23:47;97665.22;;;5.47;95.27
60970;BME280;46841;48.938;9.502;2024-03-23T02:26:13;97657.53;;;5.28;95.59
60970;BME280;46841;48.938;9.502;2024-03-23T02:28:40;97660.03;;;5.23;96.73
60970;BME280;46841;48.938;9.502;2024-03-23T02:31:05;97657.78;;;5.35;97.25
60970;BME280;46841;48.938;9.502;2024-03-23T02:33:31;97652.06;;;5.50;96.80
60970;BME280;46841;48.938;9.502;2024-03-23T02:35:57;97657.38;;;5.50;96.29
60970;BME280;46841;48.938;9.502;2024-03-23T02:38:23;97654.88;;;5.55;96.51
60970;BME280;46841;48.938;9.502;2024-03-23T02:40:48;97644.50;;;5.61;95.93
60970;BME280;46841;48.938;9.502;2024-03-23T02:43:15;97645.00;;;5.49;95.95
60970;BME280;46841;48.938;9.502;2024-03-23T02:45:40;97648.53;;;5.50;96.37
60970;BME280;46841;48.938;9.502;2024-03-23T02:48:06;97634.34;;;5.46;96.43
60970;BME280;46841;48.938;9.502;2024-03-23T02:50:31;97640.00;;;5.31;96.54
60970;BME280;46841;48.938;9.502;2024-03-23T02:52:57;97638.41;;;5.36;96.89
60970;BME280;46841;48.938;9.502;2024-03-23T02:55:22;97637.38;;;5.31;96.89
60970;BME280;46841;48.938;9.502;2024-03-23T02:57:48;97632.06;;;5.31;96.93
60970;BME280;46841;48.938;9.502;2024-03-23T03:00:13;97644.09;;;5.22;96.97
60970;BME280;46841;48.938;9.502;2024-03-23T03:02:39;97624.06;;;5.28;96.58
60970;BME280;46841;48.938;9.502;2024-03-23T03:05:05;97616.88;;;5.24;97.34
60970;BME280;46841;48.938;9.502;2024-03-23T03:07:31;97617.31;;;5.11;96.86
60970;BME280;46841;48.938;9.502;2024-03-23T03:09:57;97618.63;;;4.97;97.10
60970;BME280;46841;48.938;9.502;2024-03-23T03:12:23;97622.16;;;4.97;97.72
60970;BME280;46841;48.938;9.502;2024-03-23T03:14:48;97619.59;;;4.99;97.98
60970;BME280;46841;48.938;9.502;2024-03-23T03:17:14;97618.00;;;5.04;97.86
60970;BME280;46841;48.938;9.502;2024-03-23T03:19:40;97610.00;;;5.02;97.99
60970;BME280;46841;48.938;9.502;2024-03-23T03:22:05;97614.06;;;4.93;97.87
60970;BME280;46841;48.938;9.502;2024-03-23T03:24:31;97610.47;;;4.63;97.69
60970;BME280;46841;48.938;9.502;2024-03-23T03:26:56;97616.34;;;4.80;99.13
60970;BME280;46841;48.938;9.502;2024-03-23T03:29:23;97606.94;;;5.17;98.76
60970;BME280;46841;48.938;9.502;2024-03-23T03:31:49;97613.66;;;5.34;97.45
60970;BME280;46841;48.938;9.502;2024-03-23T03:34:15;97609.53;;;5.15;97.95
60970;BME280;46841;48.938;9.502;2024-03-23T03:36:41;97600.97;;;4.96;97.88
60970;BME280;46841;48.938;9.502;2024-03-23T03:39:06;97602.97;;;4.76;98.62
60970;BME280;46841;48.938;9.502;2024-03-23T03:41:32;97598.47;;;4.73;99.09
60970;BME280;46841;48.938;9.502;2024-03-23T03:43:58;97603.75;;;4.73;99.22
60970;BME280;46841;48.938;9.502;2024-03-23T03:46:30;97599.28;;;4.71;99.13
60970;BME280;46841;48.938;9.502;2024-03-23T03:48:56;97604.31;;;4.64;99.05
60970;BME280;46841;48.938;9.502;2024-03-23T03:51:21;97601.63;;;4.63;99.90
60970;BME280;46841;48.938;9.502;2024-03-23T03:53:46;97584.47;;;4.50;100.00
60970;BME280;46841;48.938;9.502;2024-03-23T03:56:12;97589.88;;;4.53;99.98
60970;BME280;46841;48.938;9.502;2024-03-23T03:58:37;97592.34;;;4.49;100.00
60970;BME280;46841;48.938;9.502;2024-03-23T04:01:03;97593.09;;;4.70;100.00
60970;BME280;46841;48.938;9.502;2024-03-23T04:03:28;97591.28;;;4.69;100.00
60970;BME280;46841;48.938;9.502;2024-03-23T04:05:54;97581.00;;;4.78;100.00
60970;BME280;46841;48.938;9.502;2024-03-23T04:08:20;97572.13;;;4.75;100.00
60970;BME280;46841;48.938;9.502;2024-03-23T04:10:45;97544.44;;;4.91;99.87
60970;BME280;46841;48.938;9.502;2024-03-23T04:13:12;97533.13;;;4.95;98.56
60970;BME280;46841;48.938;9.502;2024-03-23T04:15:37;97524.97;;;4.88;98.33
60970;BME280;46841;48.938;9.502;2024-03-23T04:18:03;97530.59;;;4.71;98.64
60970;BME280;46841;48.938;9.502;2024-03-23T04:20:28;97531.03;;;4.57;99.04
60970;BME280;46841;48.938;9.502;2024-03-23T04:22:54;97521.81;;;4.72;99.83
60970;BME280;46841;48.938;9.502;2024-03-23T04:25:19;97517.06;;;4.61;99.95
60970;BME280;46841;48.938;9.502;2024-03-23T04:27:46;97504.94;;;4.68;100.00
60970;BME280;46841;48.938;9.502;2024-03-23T04:30:12;97504.31;;;5.04;100.00
60970;BME280;46841;48.938;9.502;2024-03-23T04:32:38;97494.22;;;5.19;100.00
60970;BME280;46841;48.938;9.502;2024-03-23T04:35:04;97495.53;;;5.33;100.00
60970;BME280;46841;48.938;9.502;2024-03-23T04:37:38;97503.13;;;5.53;99.36
60970;BME280;46841;48.938;9.502;2024-03-23T04:40:06;97517.31;;;5.86;97.06
60970;BME280;46841;48.938;9.502;2024-03-23T04:42:33;97540.75;;;6.03;94.50
60970;BME280;46841;48.938;9.502;2024-03-23T04:44:58;97564.03;;;6.14;94.98
60970;BME280;46841;48.938;9.502;2024-03-23T04:47:24;97581.97;;;6.92;95.14
60970;BME280;46841;48.938;9.502;2024-03-23T04:49:49;97591.59;;;7.25;94.77
60970;BME280;46841;48.938;9.502;2024-03-23T04:52:16;97599.25;;;7.51;95.61
60970;BME280;46841;48.938;9.502;2024-03-23T04:54:41;97595.94;;;7.61;95.62
60970;BME280;46841;48.938;9.502;2024-03-23T04:57:07;97605.19;;;7.78;95.10
60970;BME280;46841;48.938;9.502;2024-03-23T04:59:33;97591.81;;;7.74;96.39
60970;BME280;46841;48.938;9.502;2024-03-23T05:01:59;97585.69;;;7.76;96.83
60970;BME280;46841;48.938;9.502;2024-03-23T05:04:26;97576.78;;;7.74;97.57
60970;BME280;46841;48.938;9.502;2024-03-23T05:06:51;97562.72;;;7.78;98.07
60970;BME280;46841;48.938;9.502;2024-03-23T05:09:17;97571.66;;;7.83;98.13
60970;BME280;46841;48.938;9.502;2024-03-23T05:11:42;97571.06;;;7.96;98.04
60970;BME280;46841;48.938;9.502;2024-03-23T05:14:08;97569.28;;;7.95;98.13
60970;BME280;46841;48.938;9.502;2024-03-23T05:16:34;97573.94;;;8.09;98.21
60970;BME280;46841;48.938;9.502;2024-03-23T05:18:59;97566.25;;;8.22;97.57
60970;BME280;46841;48.938;9.502;2024-03-23T05:21:25;97559.97;;;8.19;97.17
60970;BME280;46841;48.938;9.502;2024-03-23T05:23:50;97568.81;;;8.18;97.25
60970;BME280;46841;48.938;9.502;2024-03-23T05:26:17;97565.19;;;8.14;97.56
60970;BME280;46841;48.938;9.502;2024-03-23T05:28:42;97557.13;;;8.08;98.44
60970;BME280;46841;48.938;9.502;2024-03-23T05:31:07;97572.03;;;8.00;98.99
60970;BME280;46841;48.938;9.502;2024-03-23T05:33:35;97586.50;;;8.16;98.77
60970;BME280;46841;48.938;9.502;2024-03-23T05:36:01;97591.38;;;8.37;97.46
60970;BME280;46841;48.938;9.502;2024-03-23T05:38:27;97584.97;;;8.29;97.48
60970;BME280;46841;48.938;9.502;2024-03-23T05:43:19;97588.81;;;8.41;96.63
60970;BME280;46841;48.938;9.502;2024-03-23T05:45:44;97595.09;;;8.46;96.51
60970;BME280;46841;48.938;9.502;2024-03-23T05:53:34;97600.78;;;8.65;93.92
60970;BME280;46841;48.938;9.502;2024-03-23T05:56:03;97617.81;;;8.76;92.61
60970;BME280;46841;48.938;9.502;2024-03-23T05:58:29;97630.13;;;8.71;92.24
60970;BME280;46841;48.938;9.502;2024-03-23T06:00:59;97616.13;;;8.81;91.54
60970;BME280;46841;48.938;9.502;2024-03-23T06:03:28;97627.63;;;8.79;91.17
60970;BME280;46841;48.938;9.502;2024-03-23T06:05:54;97633.81;;;8.79;89.06
60970;BME280;46841;48.938;9.502;2024-03-23T06:08:22;97640.75;;;8.71;89.08
60970;BME280;46841;48.938;9.502;2024-03-23T06:10:48;97625.66;;;8.68;88.96
60970;BME280;46841;48.938;9.502;2024-03-23T06:13:14;97640.72;;;8.68;88.99
60970;BME280;46841;48.938;9.502;2024-03-23T06:15:39;97621.03;;;8.58;89.99
60970;BME280;46841;48.938;9.502;2024-03-23T06:18:05;97620.06;;;8.53;89.57
60970;BME280;46841;48.938;9.502;2024-03-23T06:20:33;97635.06;;;8.51;88.89
60970;BME280;46841;48.938;9.502;2024-03-23T06:22:59;97635.88;;;8.47;88.23
60970;BME280;46841;48.938;9.502;2024-03-23T06:25:24;97638.31;;;8.36;89.66
60970;BME280;46841;48.938;9.502;2024-03-23T06:27:50;97643.44;;;8.29;90.09
60970;BME280;46841;48.938;9.502;2024-03-23T06:30:15;97656.88;;;8.35;89.76
60970;BME280;46841;48.938;9.502;2024-03-23T06:32:41;97674.53;;;8.33;88.46
60970;BME280;46841;48.938;9.502;2024-03-23T06:35:07;97671.75;;;8.27;89.08
60970;BME280;46841;48.938;9.502;2024-03-23T06:37:34;97656.72;;;8.29;88.50
60970;BME280;46841;48.938;9.502;2024-03-23T06:39:59;97648.84;;;8.33;88.29
60970;BME280;46841;48.938;9.502;2024-03-23T06:42:25;97665.81;;;8.38;88.09
60970;BME280;46841;48.938;9.502;2024-03-23T06:44:50;97680.84;;;8.36;88.20
60970;BME280;46841;48.938;9.502;2024-03-23T06:47:16;97694.03;;;8.33;88.33
60970;BME280;46841;48.938;9.502;2024-03-23T06:49:43;97698.56;;;8.37;87.63
60970;BME280;46841;48.938;9.502;2024-03-23T06:52:08;97715.34;;;8.35;87.16
60970;BME280;46841;48.938;9.502;2024-03-23T06:54:33;97723.13;;;8.27;88.00
60970;BME280;46841;48.938;9.502;2024-03-23T06:56:59;97725.06;;;8.34;87.11
60970;BME280;46841;48.938;9.502;2024-03-23T06:59:25;97735.53;;;8.28;87.73
60970;BME280;46841;48.938;9.502;2024-03-23T07:01:50;97732.16;;;8.34;86.02
60970;BME280;46841;48.938;9.502;2024-03-23T07:04:16;97746.34;;;8.36;85.78
60970;BME280;46841;48.938;9.502;2024-03-23T07:06:45;97738.50;;;8.39;84.45
60970;BME280;46841;48.938;9.502;2024-03-23T07:09:11;97748.94;;;8.33;84.70
60970;BME280;46841;48.938;9.502;2024-03-23T07:11:38;97755.47;;;8.45;84.99
60970;BME280;46841;48.938;9.502;2024-03-23T07:14:03;97755.38;;;8.42;84.39
60970;BME280;46841;48.938;9.502;2024-03-23T07:16:30;97760.75;;;8.44;82.40
60970;BME280;46841;48.938;9.502;2024-03-23T07:18:57;97782.13;;;8.50;81.86
60970;BME280;46841;48.938;9.502;2024-03-23T07:21:24;97781.03;;;8.39;81.84
60970;BME280;46841;48.938;9.502;2024-03-23T07:23:50;97789.91;;;8.41;81.64
60970;BME280;46841;48.938;9.502;2024-03-23T07:26:16;97786.44;;;8.43;81.96
60970;BME280;46841;48.938;9.502;2024-03-23T07:28:43;97779.59;;;8.56;81.93
60970;BME280;46841;48.938;9.502;2024-03-23T07:31:10;97777.25;;;8.70;80.67
60970;BME280;46841;48.938;9.502;2024-03-23T07:33:45;97765.22;;;8.87;80.00
60970;BME280;46841;48.938;9.502;2024-03-23T07:36:10;97794.78;;;9.03;79.30
60970;BME280;46841;48.938;9.502;2024-03-23T07:38:36;97767.81;;;9.31;76.48
60970;BME280;46841;48.938;9.502;2024-03-23T07:41:09;97780.53;;;9.47;77.31
60970;BME280;46841;48.938;9.502;2024-03-23T07:43:35;97782.78;;;9.73;75.48
60970;BME280;46841;48.938;9.502;2024-03-23T07:46:01;97782.47;;;10.11;75.45
60970;BME280;46841;48.938;9.502;2024-03-23T07:48:28;97782.63;;;9.65;76.11
60970;BME280;46841;48.938;9.502;2024-03-23T07:53:30;97788.44;;;9.43;76.32
60970;BME280;46841;48.938;9.502;2024-03-23T07:56:01;97810.13;;;9.16;76.47
60970;BME280;46841;48.938;9.502;2024-03-23T07:58:28;97823.97;;;8.99;77.97
60970;BME280;46841;48.938;9.502;2024-03-23T08:00:54;97811.50;;;8.97;77.14
60970;BME280;46841;48.938;9.502;2024-03-23T08:03:20;97821.00;;;8.84;77.90
60970;BME280;46841;48.938;9.502;2024-03-23T08:05:46;97841.94;;;8.33;79.14
60970;BME280;46841;48.938;9.502;2024-03-23T08:08:12;97850.09;;;8.03;80.55
60970;BME280;46841;48.938;9.502;2024-03-23T08:10:48;97860.47;;;7.93;81.23
60970;BME280;46841;48.938;9.502;2024-03-23T08:13:13;97869.94;;;7.82;82.33
60970;BME280;46841;48.938;9.502;2024-03-23T08:15:39;97871.84;;;7.55;83.64
60970;BME280;46841;48.938;9.502;2024-03-23T08:18:04;97870.25;;;7.28;86.16
60970;BME280;46841;48.938;9.502;2024-03-23T08:20:30;97874.34;;;7.17;86.24
60970;BME280;46841;48.938;9.502;2024-03-23T08:22:55;97883.59;;;7.00;87.54
60970;BME280;46841;48.938;9.502;2024-03-23T08:25:21;97917.56;;;6.84;88.44
60970;BME280;46841;48.938;9.502;2024-03-23T08:27:46;97929.34;;;6.65;89.69
60970;BME280;46841;48.938;9.502;2024-03-23T08:30:12;97942.59;;;6.65;90.62
60970;BME280;46841;48.938;9.502;2024-03-23T08:32:38;97936.97;;;6.55;88.93
60970;BME280;46841;48.938;9.502;2024-03-23T08:35:04;97940.88;;;6.39;89.23
60970;BME280;46841;48.938;9.502;2024-03-23T08:37:29;97961.63;;;6.25;88.10
60970;BME280;46841;48.938;9.502;2024-03-23T08:39:57;97967.41;;;6.40;87.85
60970;BME280;46841;48.938;9.502;2024-03-23T08:42:24;97987.13;;;6.49;87.87
60970;BME280;46841;48.938;9.502;2024-03-23T08:44:50;97986.94;;;6.42;87.75
60970;BME280;46841;48.938;9.502;2024-03-23T08:47:16;97996.72;;;6.45;86.96
60970;BME280;46841;48.938;9.502;2024-03-23T08:49:41;98010.97;;;6.49;88.29
60970;BME280;46841;48.938;9.502;2024-03-23T08:52:07;98016.03;;;6.68;87.70
60970;BME280;46841;48.938;9.502;2024-03-23T08:54:33;98025.81;;;6.71;87.66
60970;BME280;46841;48.938;9.502;2024-03-23T08:57:00;98020.66;;;6.75;88.39
60970;BME280;46841;48.938;9.502;2024-03-23T08:59:25;98017.72;;;6.93;86.65
60970;BME280;46841;48.938;9.502;2024-03-23T09:01:53;98004.75;;;7.31;85.62
60970;BME280;46841;48.938;9.502;2024-03-23T09:04:19;97989.28;;;7.76;81.53
60970;BME280;46841;48.938;9.502;2024-03-23T09:06:44;97992.44;;;7.63;83.19
60970;BME280;46841;48.938;9.502;2024-03-23T09:09:10;97985.75;;;7.47;84.01
60970;BME280;46841;48.938;9.502;2024-03-23T09:11:35;98009.00;;;7.26;80.39
60970;BME280;46841;48.938;9.502;2024-03-23T09:14:03;98027.84;;;7.05;81.92
60970;BME280;46841;48.938;9.502;2024-03-23T09:16:29;98038.09;;;7.23;80.18
60970;BME280;46841;48.938;9.502;2024-03-23T09:18:54;98041.56;;;7.20;80.65
60970;BME280;46841;48.938;9.502;2024-03-23T09:21:20;98053.88;;;7.18;78.48
60970;BME280;46841;48.938;9.502;2024-03-23T09:23:45;98054.66;;;7.14;77.81
60970;BME280;46841;48.938;9.502;2024-03-23T09:26:11;98075.72;;;7.09;77.84
60970;BME280;46841;48.938;9.502;2024-03-23T09:28:36;98078.53;;;7.14;77.65
60970;BME280;46841;48.938;9.502;2024-03-23T09:31:06;98087.97;;;7.06;78.49
60970;BME280;46841;48.938;9.502;2024-03-23T09:33:35;98103.06;;;6.81;76.64
60970;BME280;46841;48.938;9.502;2024-03-23T09:36:06;98102.25;;;6.57;78.66
60970;BME280;46841;48.938;9.502;2024-03-23T09:38:32;98099.53;;;6.55;77.96
60970;BME280;46841;48.938;9.502;2024-03-23T09:40:58;98106.31;;;6.47;79.30
60970;BME280;46841;48.938;9.502;2024-03-23T09:43:25;98101.84;;;6.46;80.40
60970;BME280;46841;48.938;9.502;2024-03-23T09:45:51;98099.16;;;6.45;79.86
60970;BME280;46841;48.938;9.502;2024-03-23T09:48:17;98098.38;;;6.47;78.64
60970;BME280;46841;48.938;9.502;2024-03-23T09:50:45;98095.06;;;6.54;79.74
60970;BME280;46841;48.938;9.502;2024-03-23T09:53:13;98095.41;;;6.63;80.58
60970;BME280;46841;48.938;9.502;2024-03-23T09:55:40;98101.31;;;6.82;81.37
60970;BME280;46841;48.938;9.502;2024-03-23T09:58:06;98085.94;;;7.26;79.00
60970;BME280;46841;48.938;9.502;2024-03-23T10:00:36;98069.88;;;7.50;77.39
60970;BME280;46841;48.938;9.502;2024-03-23T10:03:02;98059.38;;;7.83;75.63
60970;BME280;46841;48.938;9.502;2024-03-23T10:05:28;98073.22;;;8.03;75.47
60970;BME280;46841;48.938;9.502;2024-03-23T10:07:56;98064.72;;;8.46;73.94
60970;BME280;46841;48.938;9.502;2024-03-23T10:10:21;98064.91;;;8.54;73.75
60970;BME280;46841;48.938;9.502;2024-03-23T10:12:48;98064.63;;;8.43;72.75
60970;BME280;46841;48.938;9.502;2024-03-23T10:15:24;98066.09;;;8.65;72.98
60970;BME280;46841;48.938;9.502;2024-03-23T10:17:50;98069.53;;;8.61;74.45
60970;BME280;46841;48.938;9.502;2024-03-23T10:20:20;98075.06;;;8.68;73.89
60970;BME280;46841;48.938;9.502;2024-03-23T10:22:48;98074.44;;;8.79;73.47
60970;BME280;46841;48.938;9.502;2024-03-23T10:25:15;98059.75;;;10.14;67.66
60970;BME280;46841;48.938;9.502;2024-03-23T10:27:41;98046.16;;;10.97;64.02
60970;BME280;46841;48.938;9.502;2024-03-23T10:30:11;98043.69;;;10.55;65.04
60970;BME280;46841;48.938;9.502;2024-03-23T10:32:37;98045.84;;;10.27;65.44
60970;BME280;46841;48.938;9.502;2024-03-23T10:35:23;98036.97;;;9.86;66.47
60970;BME280;46841;48.938;9.502;2024-03-23T10:37:48;98033.00;;;9.67;67.07
60970;BME280;46841;48.938;9.502;2024-03-23T10:40:17;98047.41;;;9.34;65.98
60970;BME280;46841;48.938;9.502;2024-03-23T10:42:46;98045.88;;;9.08;67.63
60970;BME280;46841;48.938;9.502;2024-03-23T10:45:12;98061.09;;;8.77;67.71
60970;BME280;46841;48.938;9.502;2024-03-23T10:47:38;98057.78;;;8.19;68.71
60970;BME280;46841;48.938;9.502;2024-03-23T10:50:04;98059.56;;;7.90;67.99
60970;BME280;46841;48.938;9.502;2024-03-23T10:52:33;98054.97;;;7.83;66.43
60970;BME280;46841;48.938;9.502;2024-03-23T10:55:03;98052.53;;;7.91;66.89
60970;BME280;46841;48.938;9.502;2024-03-23T10:57:36;98054.44;;;8.28;67.05
60970;BME280;46841;48.938;9.502;2024-03-23T11:00:03;98040.69;;;8.43;65.31
60970;BME280;46841;48.938;9.502;2024-03-23T11:02:33;98049.78;;;8.51;65.73
60970;BME280;46841;48.938;9.502;2024-03-23T11:04:59;98049.50;;;8.40;64.14
60970;BME280;46841;48.938;9.502;2024-03-23T11:09:54;98075.00;;;8.04;65.74
60970;BME280;46841;48.938;9.502;2024-03-23T11:12:26;98078.94;;;7.56;68.80
60970;BME280;46841;48.938;9.502;2024-03-23T11:15:05;98095.06;;;7.07;68.68
60970;BME280;46841;48.938;9.502;2024-03-23T11:17:31;98119.19;;;6.87;69.66
60970;BME280;46841;48.938;9.502;2024-03-23T11:20:04;98127.72;;;6.53;70.39
60970;BME280;46841;48.938;9.502;2024-03-23T11:22:47;98148.94;;;6.29;72.73
60970;BME280;46841;48.938;9.502;2024-03-23T11:25:23;98145.97;;;6.20;74.59
60970;BME280;46841;48.938;9.502;2024-03-23T11:27:51;98144.91;;;6.15;75.30
60970;BME280;46841;48.938;9.502;2024-03-23T11:30:21;98121.25;;;6.45;75.00
60970;BME280;46841;48.938;9.502;2024-03-23T11:32:54;98119.03;;;7.37;72.36
60970;BME280;46841;48.938;9.502;2024-03-23T11:38:11;98119.34;;;7.19;72.45
60970;BME280;46841;48.938;9.502;2024-03-23T11:40:48;98125.75;;;7.53;68.85
60970;BME280;46841;48.938;9.502;2024-03-23T11:45:47;98119.84;;;8.86;66.55
60970;BME280;46841;48.938;9.502;2024-03-23T11:48:21;98113.19;;;9.04;66.12
60970;BME280;46841;48.938;9.502;2024-03-23T11:50:48;98111.31;;;8.66;68.46
60970;BME280;46841;48.938;9.502;2024-03-23T11:53:19;98116.00;;;8.75;68.83
60970;BME280;46841;48.938;9.502;2024-03-23T11:55:52;98113.56;;;9.19;65.72
60970;BME280;46841;48.938;9.502;2024-03-23T11:58:21;98116.50;;;8.60;67.10
60970;BME280;46841;48.938;9.502;2024-03-23T12:00:56;98119.78;;;8.52;68.21
60970;BME280;46841;48.938;9.502;2024-03-23T12:03:23;98115.22;;;8.46;69.22
60970;BME280;46841;48.938;9.502;2024-03-23T12:05:57;98106.00;;;8.66;70.14
60970;BME280;46841;48.938;9.502;2024-03-23T12:08:31;98089.47;;;8.43;69.70
60970;BME280;46841;48.938;9.502;2024-03-23T12:11:10;98091.44;;;8.20;68.86
60970;BME280;46841;48.938;9.502;2024-03-23T12:13:39;98096.25;;;8.04;68.66
60970;BME280;46841;48.938;9.502;2024-03-23T12:16:16;98095.25;;;7.98;69.41
60970;BME280;46841;48.938;9.502;2024-03-23T12:18:42;98097.69;;;7.91;71.32
60970;BME280;46841;48.938;9.502;2024-03-23T12:21:14;98108.94;;;8.14;70.43
60970;BME280;46841;48.938;9.502;2024-03-23T12:23:42;98102.75;;;7.83;71.22
60970;BME280;46841;48.938;9.502;2024-03-23T12:26:09;98098.00;;;8.02;70.97
60970;BME280;46841;48.938;9.502;2024-03-23T12:28:35;98103.75;;;7.87;71.65
60970;BME280;46841;48.938;9.502;2024-03-23T12:31:00;98097.34;;;7.80;71.69
60970;BME280;46841;48.938;9.502;2024-03-23T12:33:26;98096.28;;;7.74;72.67
60970;BME280;46841;48.938;9.502;2024-03-23T12:35:52;98099.97;;;7.79;71.44
60970;BME280;46841;48.938;9.502;2024-03-23T12:38:19;98097.22;;;8.06;70.93
60970;BME280;46841;48.938;9.502;2024-03-23T12:40:50;98080.25;;;8.32;69.43
60970;BME280;46841;48.938;9.502;2024-03-23T12:43:16;98079.84;;;8.82;67.73
60970;BME280;46841;48.938;9.502;2024-03-23T12:45:47;98073.16;;;11.14;60.72
60970;BME280;46841;48.938;9.502;2024-03-23T12:48:12;98070.81;;;11.35;54.36
60970;BME280;46841;48.938;9.502;2024-03-23T12:50:38;98071.69;;;10.31;58.03
60970;BME280;46841;48.938;9.502;2024-03-23T12:53:03;98063.63;;;10.28;58.28
60970;BME280;46841;48.938;9.502;2024-03-23T12:55:29;98061.00;;;9.87;58.26
60970;BME280;46841;48.938;9.502;2024-03-23T12:57:54;98064.94;;;9.64;59.13
60970;BME280;46841;48.938;9.502;2024-03-23T13:00:20;98056.66;;;10.83;55.84
60970;BME280;46841;48.938;9.502;2024-03-23T13:02:45;98058.53;;;12.95;49.30
60970;BME280;46841;48.938;9.502;2024-03-23T13:05:11;98057.75;;;14.62;44.49
60970;BME280;46841;48.938;9.502;2024-03-23T13:07:36;98062.19;;;13.03;47.27
60970;BME280;46841;48.938;9.502;2024-03-23T13:10:04;98066.84;;;11.66;50.15
60970;BME280;46841;48.938;9.502;2024-03-23T13:12:30;98066.72;;;10.49;52.09
60970;BME280;46841;48.938;9.502;2024-03-23T13:14:56;98068.91;;;9.84;53.17
60970;BME280;46841;48.938;9.502;2024-03-23T13:17:22;98062.31;;;9.67;54.71
60970;BME280;46841;48.938;9.502;2024-03-23T13:19:48;98049.22;;;9.37;54.34
60970;BME280;46841;48.938;9.502;2024-03-23T13:22:13;98070.53;;;9.38;54.40
60970;BME280;46841;48.938;9.502;2024-03-23T13:24:38;98044.66;;;13.44;45.47
60970;BME280;46841;48.938;9.502;2024-03-23T13:27:04;98040.78;;;14.77;41.24
60970;BME280;46841;48.938;9.502;2024-03-23T13:29:33;98046.88;;;10.87;49.77
60970;BME280;46841;48.938;9.502;2024-03-23T13:32:08;98035.03;;;10.21;52.54
60970;BME280;46841;48.938;9.502;2024-03-23T13:34:34;98033.63;;;10.40;52.84
60970;BME280;46841;48.938;9.502;2024-03-23T13:37:01;98030.97;;;10.91;52.13
60970;BME280;46841;48.938;9.502;2024-03-23T13:39:27;98016.41;;;11.92;50.06
60970;BME280;46841;48.938;9.502;2024-03-23T13:41:56;97997.78;;;14.57;42.17
60970;BME280;46841;48.938;9.502;2024-03-23T13:44:22;97984.81;;;16.48;38.47
60970;BME280;46841;48.938;9.502;2024-03-23T13:46:48;97987.78;;;15.93;38.54
60970;BME280;46841;48.938;9.502;2024-03-23T13:51:56;97969.63;;;16.33;36.16
60970;BME280;46841;48.938;9.502;2024-03-23T13:54:23;97966.06;;;16.34;36.44
60970;BME280;46841;48.938;9.502;2024-03-23T13:56:50;97979.75;;;14.10;39.99
60970;BME280;46841;48.938;9.502;2024-03-23T13:59:16;97978.59;;;12.39;42.01
60970;BME280;46841;48.938;9.502;2024-03-23T14:01:44;97974.28;;;11.08;45.46
60970;BME280;46841;48.938;9.502;2024-03-23T14:04:11;97991.09;;;10.49;45.68
60970;BME280;46841;48.938;9.502;2024-03-23T14:06:36;97990.47;;;10.15;48.16
60970;BME280;46841;48.938;9.502;2024-03-23T14:09:02;98002.50;;;9.95;49.00
60970;BME280;46841;48.938;9.502;2024-03-23T14:11:29;98060.28;;;9.16;53.20
60970;BME280;46841;48.938;9.502;2024-03-23T14:13:54;98056.63;;;7.21;64.50
60970;BME280;46841;48.938;9.502;2024-03-23T14:16:20;98073.41;;;6.40;69.30
60970;BME280;46841;48.938;9.502;2024-03-23T14:18:49;98095.09;;;5.82;72.63
60970;BME280;46841;48.938;9.502;2024-03-23T14:21:14;98090.22;;;5.47;76.52
60970;BME280;46841;48.938;9.502;2024-03-23T14:23:39;98094.97;;;5.33;77.90